Time,TemperatureF,DewpointF,PressureIn,WindDirection,WindDirectionDegrees,WindSpeedMPH,WindSpeedGustMPH,Humidity,HourlyPrecipIn,Conditions,Clouds,dailyrainin,SoftwareType,DateUTC
2013-08-26 00:14:00,64.0,59.0,30.16,North,0,0.0,0.0,84,0.00,,,0.00,,2013-08-26 04:14:00,
2013-08-26 00:50:00,63.0,58.0,30.15,SSW,197,0.0,1.0,84,0.00,,,0.00,,2013-08-26 04:50:00,
2013-08-26 00:53:00,63.0,58.0,30.15,North,0,0.0,0.0,84,0.00,,,0.00,,2013-08-26 04:53:00,
2013-08-26 01:13:00,63.0,58.0,30.15,SSW,197,0.0,1.0,84,0.00,,,0.00,,2013-08-26 05:13:00,
2013-08-26 01:23:00,63.0,58.0,30.15,SSW,197,0.0,1.0,84,0.00,,,0.00,,2013-08-26 05:23:00,
2013-08-26 01:33:00,63.0,58.0,30.15,SSW,197,0.0,1.0,84,0.00,,,0.00,,2013-08-26 05:33:00,
2013-08-26 01:43:00,63.0,58.0,30.15,SSW,197,0.0,1.0,84,0.00,,,0.00,,2013-08-26 05:43:00,
2013-08-26 02:12:00,63.0,58.0,30.14,SSW,198,0.0,1.0,84,0.00,,,0.00,,2013-08-26 06:12:00,
2013-08-26 02:22:00,63.0,58.0,30.14,SSW,198,0.0,1.0,84,0.00,,,0.00,,2013-08-26 06:22:00,
2013-08-26 02:42:00,63.0,58.0,30.14,SSW,210,0.0,2.0,84,0.00,,,0.00,,2013-08-26 06:42:00,
2013-08-26 02:52:00,63.0,58.0,30.14,WSW,238,0.0,2.0,85,0.00,,,0.00,,2013-08-26 06:52:00,
2013-08-26 03:11:00,63.0,58.0,30.13,North,0,0.0,0.0,84,0.00,,,0.00,,2013-08-26 07:11:00,
2013-08-26 03:22:00,63.0,58.0,30.13,North,0,0.0,0.0,84,0.00,,,0.00,,2013-08-26 07:22:00,
2013-08-26 03:42:00,63.0,58.0,30.12,North,0,0.0,0.0,85,0.00,,,0.00,,2013-08-26 07:42:00,
2013-08-26 03:52:00,62.0,57.0,30.12,North,0,0.0,0.0,84,0.00,,,0.00,,2013-08-26 07:52:00,
2013-08-26 04:12:00,62.0,58.0,30.11,SW,227,0.0,1.0,86,0.00,,,0.00,,2013-08-26 08:12:00,
2013-08-26 04:22:00,63.0,59.0,30.10,SE,146,0.0,3.0,86,0.00,,,0.00,,2013-08-26 08:22:00,
2013-08-26 04:42:00,63.0,58.0,30.09,WSW,243,0.0,2.0,84,0.00,,,0.00,,2013-08-26 08:42:00,
2013-08-26 04:52:00,63.0,58.0,30.09,WSW,243,0.0,2.0,84,0.00,,,0.00,,2013-08-26 08:52:00,
2013-08-26 05:11:00,63.0,59.0,30.09,WSW,251,0.0,1.0,86,0.00,,,0.00,,2013-08-26 09:11:00,
2013-08-26 05:21:00,63.0,59.0,30.09,WSW,251,0.0,1.0,86,0.00,,,0.00,,2013-08-26 09:21:00,
2013-08-26 05:33:00,63.0,59.0,30.09,WSW,251,0.0,1.0,86,0.00,,,0.00,,2013-08-26 09:33:00,
2013-08-26 05:54:00,62.0,59.0,30.10,West,266,0.0,2.0,89,0.01,,,0.01,,2013-08-26 09:54:00,
2013-08-26 06:13:00,62.0,59.0,30.09,WSW,254,0.0,1.0,89,0.01,,,0.02,,2013-08-26 10:13:00,
2013-08-26 06:23:00,62.0,59.0,30.09,WSW,254,0.0,1.0,89,0.01,,,0.02,,2013-08-26 10:23:00,
2013-08-26 06:42:00,62.0,59.0,30.08,WSW,253,0.0,1.0,90,0.02,,,0.03,,2013-08-26 10:42:00,
2013-08-26 06:52:00,62.0,59.0,30.08,WSW,253,0.0,1.0,90,0.02,,,0.03,,2013-08-26 10:52:00,
2013-08-26 07:12:00,62.0,59.0,30.08,North,0,0.0,0.0,90,0.01,,,0.03,,2013-08-26 11:12:00,
2013-08-26 07:22:00,63.0,60.0,30.06,South,185,0.0,4.0,91,0.03,,,0.05,,2013-08-26 11:22:00,
2013-08-26 07:52:00,63.0,60.0,30.06,SW,225,0.0,3.0,91,0.02,,,0.05,,2013-08-26 11:52:00,
2013-08-26 08:12:00,63.0,60.0,30.06,South,179,0.0,1.0,91,0.01,,,0.05,,2013-08-26 12:12:00,
2013-08-26 08:22:00,63.0,60.0,30.06,South,186,0.0,2.0,91,0.00,,,0.05,,2013-08-26 12:22:00,
2013-08-26 08:52:00,63.0,60.0,30.04,SW,234,1.0,5.0,91,0.00,,,0.05,,2013-08-26 12:52:00,
2013-08-26 09:12:00,64.0,61.0,30.04,SW,227,1.0,6.0,91,0.00,,,0.05,,2013-08-26 13:12:00,
2013-08-26 09:21:00,64.0,61.0,30.04,SSW,196,0.0,5.0,91,0.00,,,0.05,,2013-08-26 13:21:00,
2013-08-26 09:42:00,64.0,61.0,30.03,SW,226,1.0,7.0,91,0.00,,,0.05,,2013-08-26 13:42:00,
2013-08-26 09:52:00,65.0,62.0,30.03,SSW,212,1.0,5.0,90,0.00,,,0.05,,2013-08-26 13:52:00,
2013-08-26 10:11:00,66.0,63.0,30.02,South,170,0.0,5.0,90,0.00,,,0.05,,2013-08-26 14:11:00,
2013-08-26 10:22:00,68.0,64.0,30.02,WSW,237,2.0,8.0,86,0.00,,,0.05,,2013-08-26 14:22:00,
2013-08-26 10:32:00,68.0,64.0,30.02,WSW,237,2.0,8.0,86,0.00,,,0.05,,2013-08-26 14:32:00,
2013-08-26 10:42:00,68.0,64.0,30.02,WSW,237,2.0,8.0,86,0.00,,,0.05,,2013-08-26 14:42:00,
2013-08-26 10:52:00,74.0,67.0,30.01,WSW,258,1.0,8.0,79,0.00,,,0.05,,2013-08-26 14:52:00,
2013-08-26 11:22:00,77.0,66.0,30.00,SW,232,2.0,7.0,70,0.00,,,0.05,,2013-08-26 15:22:00,
2013-08-26 11:47:00,78.0,67.0,29.99,SW,228,2.0,7.0,70,0.00,,,0.05,,2013-08-26 15:47:00,
2013-08-26 11:59:00,79.0,68.0,29.99,WSW,242,2.0,6.0,70,0.00,,,0.05,,2013-08-26 15:59:00,
2013-08-26 12:17:00,80.0,68.0,29.98,SW,231,2.0,9.0,66,0.00,,,0.05,,2013-08-26 16:17:00,
2013-08-26 12:29:00,81.0,71.0,29.97,West,267,2.0,7.0,72,0.00,,,0.05,,2013-08-26 16:29:00,
2013-08-26 12:48:00,82.0,72.0,29.96,West,268,2.0,10.0,72,0.00,,,0.05,,2013-08-26 16:48:00,
2013-08-26 12:59:00,82.0,69.0,29.96,WNW,300,3.0,10.0,66,0.00,,,0.05,,2013-08-26 16:59:00,
2013-08-26 13:12:00,81.0,68.0,29.95,West,273,3.0,9.0,65,0.00,,,0.05,,2013-08-26 17:12:00,
2013-08-26 13:24:00,81.0,68.0,29.95,West,273,3.0,9.0,65,0.00,,,0.05,,2013-08-26 17:24:00,
2013-08-26 13:43:00,81.0,70.0,29.94,WNW,283,2.0,8.0,69,0.01,,,0.06,,2013-08-26 17:43:00,
2013-08-26 13:53:00,81.0,71.0,29.93,WNW,283,3.0,8.0,71,0.01,,,0.06,,2013-08-26 17:53:00,
2013-08-26 14:12:00,82.0,72.0,29.93,West,277,1.0,10.0,71,0.01,,,0.06,,2013-08-26 18:12:00,
2013-08-26 14:22:00,82.0,72.0,29.93,West,277,1.0,10.0,71,0.01,,,0.06,,2013-08-26 18:22:00,
2013-08-26 14:32:00,82.0,72.0,29.93,West,277,1.0,10.0,71,0.01,,,0.06,,2013-08-26 18:32:00,
2013-08-26 14:52:00,79.0,70.0,29.92,WNW,292,2.0,8.0,74,0.00,,,0.06,,2013-08-26 18:52:00,
2013-08-26 15:02:00,79.0,70.0,29.92,WNW,292,2.0,8.0,74,0.00,,,0.06,,2013-08-26 19:02:00,
2013-08-26 15:11:00,79.0,70.0,29.92,WNW,292,2.0,8.0,74,0.00,,,0.06,,2013-08-26 19:11:00,
2013-08-26 15:22:00,76.0,68.0,29.92,West,281,2.0,10.0,76,0.00,,,0.06,,2013-08-26 19:22:00,
2013-08-26 15:42:00,76.0,68.0,29.91,West,274,1.0,6.0,76,0.00,,,0.06,,2013-08-26 19:42:00,
2013-08-26 15:52:00,76.0,68.0,29.91,West,274,1.0,6.0,76,0.00,,,0.06,,2013-08-26 19:52:00,
2013-08-26 16:11:00,77.0,70.0,29.91,West,276,0.0,2.0,78,0.00,,,0.06,,2013-08-26 20:11:00,
2013-08-26 16:22:00,77.0,70.0,29.91,West,270,0.0,4.0,80,0.00,,,0.06,,2013-08-26 20:22:00,
2013-08-26 16:43:00,78.0,70.0,29.90,West,278,1.0,7.0,76,0.00,,,0.06,,2013-08-26 20:43:00,
2013-08-26 16:52:00,78.0,70.0,29.90,West,278,1.0,7.0,76,0.00,,,0.06,,2013-08-26 20:52:00,
2013-08-26 17:11:00,77.0,70.0,29.89,West,264,0.0,4.0,78,0.00,,,0.06,,2013-08-26 21:11:00,
2013-08-26 17:22:00,77.0,69.0,29.88,West,270,0.0,2.0,77,0.00,,,0.06,,2013-08-26 21:22:00,
2013-08-26 17:35:00,77.0,69.0,29.88,West,270,0.0,2.0,77,0.00,,,0.06,,2013-08-26 21:35:00,
2013-08-26 17:55:00,77.0,70.0,29.88,West,267,0.0,4.0,78,0.00,,,0.06,,2013-08-26 21:55:00,
2013-08-26 18:16:00,77.0,69.0,29.88,WSW,253,0.0,3.0,77,0.00,,,0.06,,2013-08-26 22:16:00,
2013-08-26 18:26:00,78.0,70.0,29.88,WSW,242,1.0,6.0,76,0.00,,,0.06,,2013-08-26 22:26:00,
2013-08-26 18:42:00,77.0,69.0,29.88,WSW,245,0.0,4.0,76,0.00,,,0.06,,2013-08-26 22:42:00,
2013-08-26 18:53:00,77.0,69.0,29.88,WSW,245,0.0,4.0,76,0.00,,,0.06,,2013-08-26 22:53:00,
2013-08-26 19:13:00,76.0,70.0,29.88,WNW,288,0.0,1.0,81,0.00,,,0.06,,2013-08-26 23:13:00,
2013-08-26 19:22:00,76.0,70.0,29.88,North,0,0.0,0.0,81,0.00,,,0.06,,2013-08-26 23:22:00,
2013-08-26 19:52:00,74.0,68.0,29.87,SW,216,0.0,1.0,82,0.00,,,0.06,,2013-08-26 23:52:00,
2013-08-26 20:11:00,74.0,69.0,29.87,North,0,0.0,0.0,84,0.00,,,0.06,,2013-08-27 00:11:00,
2013-08-26 20:21:00,74.0,69.0,29.87,North,0,0.0,0.0,84,0.00,,,0.06,,2013-08-27 00:21:00,
2013-08-26 20:42:00,73.0,68.0,29.87,North,0,0.0,0.0,85,0.00,,,0.06,,2013-08-27 00:42:00,
2013-08-26 20:52:00,72.0,68.0,29.88,SW,216,0.0,1.0,87,0.00,,,0.06,,2013-08-27 00:52:00,
2013-08-26 21:12:00,72.0,68.0,29.88,North,0,0.0,0.0,87,0.00,,,0.06,,2013-08-27 01:12:00,
2013-08-26 21:22:00,72.0,68.0,29.88,North,0,0.0,0.0,87,0.00,,,0.06,,2013-08-27 01:22:00,
2013-08-26 21:42:00,72.0,68.0,29.87,North,0,0.0,0.0,88,0.00,,,0.06,,2013-08-27 01:42:00,
2013-08-26 21:52:00,72.0,68.0,29.87,North,0,0.0,0.0,88,0.00,,,0.06,,2013-08-27 01:52:00,
2013-08-26 22:12:00,71.0,67.0,29.87,North,0,0.0,0.0,88,0.00,,,0.06,,2013-08-27 02:12:00,
2013-08-26 22:21:00,71.0,67.0,29.87,SW,216,0.0,1.0,88,0.00,,,0.06,,2013-08-27 02:21:00,
2013-08-26 22:32:00,71.0,67.0,29.87,SW,216,0.0,1.0,88,0.00,,,0.06,,2013-08-27 02:32:00,
2013-08-26 22:42:00,71.0,67.0,29.87,SW,216,0.0,1.0,88,0.00,,,0.06,,2013-08-27 02:42:00,
2013-08-26 22:52:00,71.0,67.0,29.87,North,0,0.0,0.0,88,0.00,,,0.06,,2013-08-27 02:52:00,
2013-08-26 23:12:00,71.0,68.0,29.87,North,0,0.0,0.0,89,0.00,,,0.06,,2013-08-27 03:12:00,
2013-08-26 23:23:00,71.0,68.0,29.86,North,0,0.0,0.0,89,0.00,,,0.06,,2013-08-27 03:23:00,
2013-08-26 23:36:00,71.0,68.0,29.86,North,0,0.0,0.0,89,0.00,,,0.06,,2013-08-27 03:36:00,
2013-08-26 23:44:00,71.0,68.0,29.86,North,0,0.0,0.0,89,0.00,,,0.06,,2013-08-27 03:44:00,
2013-08-26 23:58:00,70.0,67.0,29.85,North,0,0.0,0.0,89,0.00,,,0.06,,2013-08-27 03:58:00,